ADDS METAR Data INFO
IDs: Format: Raw Decoded Include TAF

Data at: 2113 UTC 22 Oct 2017

KVCT 222051Z 01010KT 10SM CLR 27/16 A3008 RMK AO2 SLP184 T02670156 55003